Time;durP1;ratioP1;P1;durP2;ratioP2;P2;SDS_P1;SDS_P2;PMS_P1;PMS_P2;Temp;Humidity;BMP_temperature;BMP_pressure;BME280_temperature;BME280_humidity;BME280_pressure;Samples;Min_cycle;Max_cycle;Signal;HPM_P1;HPM_P2
2020/12/25 00:01:06;;;;;;;13.05;9.88;;;20.90;99.90;;;;;;5072826;28;20021;-60
2020/12/25 00:03:34;;;;;;;16.63;10.55;;;20.90;99.90;;;;;;5072911;28;20028;-61
2020/12/25 00:06:02;;;;;;;12.73;9.60;;;20.90;99.90;;;;;;5072798;28;20042;-60
2020/12/25 00:08:31;;;;;;;13.57;10.70;;;20.80;99.90;;;;;;5071566;28;20078;-59
2020/12/25 00:10:59;;;;;;;13.65;10.63;;;20.70;99.90;;;;;;5072980;28;20031;-61
2020/12/25 00:13:27;;;;;;;15.43;10.77;;;20.60;99.90;;;;;;5072837;28;20137;-60
2020/12/25 00:15:55;;;;;;;11.60;10.15;;;20.60;99.90;;;;;;5070831;28;20033;-60
2020/12/25 00:18:23;;;;;;;11.25;10.00;;;20.50;99.90;;;;;;5072724;28;20071;-60
2020/12/25 00:20:53;;;;;;;17.27;11.02;;;20.20;99.90;;;;;;5072953;28;20508;-60
2020/12/25 00:23:22;;;;;;;13.70;10.25;;;20.10;99.90;;;;;;5071107;28;20119;-61
2020/12/25 00:25:50;;;;;;;17.02;10.73;;;19.90;99.90;;;;;;5070767;28;20505;-60
2020/12/25 00:28:18;;;;;;;15.48;10.55;;;19.80;99.90;;;;;;5072896;28;20017;-61
2020/12/25 00:30:47;;;;;;;17.20;10.65;;;19.70;99.90;;;;;;5071836;28;20034;-62
2020/12/25 00:33:15;;;;;;;18.88;11.05;;;19.70;99.90;;;;;;5076724;28;20516;-61
2020/12/25 00:35:44;;;;;;;21.23;19.27;;;19.60;99.90;;;;;;5076627;28;20113;-61
2020/12/25 00:38:12;;;;;;;11.43;9.98;;;19.50;99.90;;;;;;5076602;28;20024;-60
2020/12/25 00:40:49;;;;;;;12.88;9.75;;;19.50;99.90;;;;;;5076318;28;20024;-61
2020/12/25 00:43:17;;;;;;;12.40;9.00;;;19.50;99.90;;;;;;5076624;28;20052;-60
2020/12/25 00:45:45;;;;;;;11.60;10.10;;;19.50;99.90;;;;;;5076221;28;20381;-61
2020/12/25 00:48:12;;;;;;;13.85;10.40;;;19.50;99.90;;;;;;5076496;28;20103;-60
2020/12/25 00:50:41;;;;;;;16.73;10.98;;;19.50;99.90;;;;;;5076259;28;20025;-61
2020/12/25 00:53:08;;;;;;;15.88;12.25;;;19.40;99.90;;;;;;5076228;28;20108;-60
2020/12/25 00:55:37;;;;;;;14.50;9.48;;;19.50;99.90;;;;;;5076109;28;20051;-61
2020/12/25 00:58:05;;;;;;;9.98;4.28;;;19.60;99.90;;;;;;5076307;28;20047;-60
2020/12/25 01:00:33;;;;;;;11.13;6.28;;;19.70;99.90;;;;;;5076011;28;20431;-61
2020/12/25 01:03:01;;;;;;;13.38;4.10;;;19.90;99.90;;;;;;5076000;28;20099;-61
2020/12/25 01:05:29;;;;;;;11.85;4.10;;;20.10;99.90;;;;;;5076023;28;20020;-60
2020/12/25 01:07:57;;;;;;;10.30;3.70;;;20.20;99.90;;;;;;5075953;28;20058;-60
2020/12/25 01:10:25;;;;;;;12.98;3.90;;;20.30;99.90;;;;;;5074678;28;20378;-59
2020/12/25 01:12:54;;;;;;;11.50;3.47;;;20.40;99.90;;;;;;5075840;28;20021;-59
2020/12/25 01:15:22;;;;;;;12.27;4.45;;;20.50;99.90;;;;;;5075944;28;20384;-60
2020/12/25 01:17:50;;;;;;;18.13;7.53;;;20.50;99.90;;;;;;5076304;28;20012;-59
2020/12/25 01:20:19;;;;;;;17.92;6.25;;;20.50;99.90;;;;;;5074955;28;20056;-60
2020/12/25 01:22:47;;;;;;;15.15;6.43;;;20.50;99.90;;;;;;5075764;28;20031;-59
2020/12/25 01:25:15;;;;;;;15.88;3.85;;;20.40;99.90;;;;;;5057266;28;20055;-60
2020/12/25 01:27:43;;;;;;;14.90;3.72;;;20.50;99.90;;;;;;5057591;28;20032;-60
2020/12/25 01:30:11;;;;;;;12.18;3.22;;;20.70;99.90;;;;;;5075507;28;20032;-59
2020/12/25 01:32:39;;;;;;;16.10;6.00;;;20.80;99.90;;;;;;5075965;28;20104;-60
2020/12/25 01:35:07;;;;;;;12.20;3.97;;;20.70;99.90;;;;;;5076193;28;20376;-60
2020/12/25 01:37:36;;;;;;;11.50;3.58;;;20.60;99.90;;;;;;5074586;28;20523;-59
2020/12/25 01:40:05;;;;;;;14.68;3.78;;;20.60;99.90;;;;;;5075902;28;20423;-59
2020/12/25 01:42:35;;;;;;;13.48;6.28;;;20.60;99.90;;;;;;5074948;28;20111;-60
2020/12/25 01:45:05;;;;;;;17.95;9.60;;;20.50;99.90;;;;;;5075456;28;20388;-59
2020/12/25 01:47:33;;;;;;;14.48;9.50;;;20.50;99.90;;;;;;5075201;28;20033;-61
2020/12/25 01:50:02;;;;;;;12.35;3.38;;;20.40;99.90;;;;;;5075413;28;20388;-60
2020/12/25 01:52:31;;;;;;;12.15;5.88;;;20.30;99.90;;;;;;5075546;28;20025;-60
2020/12/25 01:54:59;;;;;;;14.85;6.25;;;20.20;99.90;;;;;;5075324;28;20078;-60
2020/12/25 01:57:30;;;;;;;15.10;7.53;;;20.20;99.90;;;;;;5075778;28;20534;-61
2020/12/25 01:59:58;;;;;;;11.07;6.97;;;20.20;99.90;;;;;;5075289;28;20020;-60
2020/12/25 02:02:29;;;;;;;14.13;7.60;;;20.20;99.90;;;;;;5075004;28;20346;-60
2020/12/25 02:04:57;;;;;;;17.05;6.78;;;20.20;99.90;;;;;;5075279;28;20036;-61
2020/12/25 02:07:25;;;;;;;12.88;7.70;;;20.30;99.90;;;;;;5074131;28;20048;-60
2020/12/25 02:09:53;;;;;;;16.13;8.00;;;20.40;99.90;;;;;;5075536;28;20467;-59
2020/12/25 02:12:23;;;;;;;12.05;7.28;;;20.40;99.90;;;;;;5075073;28;20021;-60
2020/12/25 02:14:51;;;;;;;17.50;6.70;;;20.40;99.90;;;;;;5075038;28;20029;-59
2020/12/25 02:17:19;;;;;;;14.38;10.48;;;20.40;99.90;;;;;;5073635;28;20060;-59
2020/12/25 02:19:47;;;;;;;14.23;9.30;;;20.50;99.90;;;;;;5074513;28;20051;-60
2020/12/25 02:22:15;;;;;;;16.70;11.20;;;20.60;99.90;;;;;;5074773;28;20039;-60
2020/12/25 02:24:43;;;;;;;15.95;10.80;;;20.70;99.90;;;;;;5074587;28;20020;-59
2020/12/25 02:27:11;;;;;;;15.23;10.57;;;20.90;99.90;;;;;;5074576;28;20499;-60
2020/12/25 02:29:39;;;;;;;14.80;10.45;;;21.10;99.90;;;;;;5074697;28;20027;-59
2020/12/25 02:32:07;;;;;;;10.75;9.73;;;21.30;99.90;;;;;;5074382;28;20025;-59
2020/12/25 02:34:36;;;;;;;11.80;9.65;;;21.40;99.90;;;;;;5056314;28;20082;-60
2020/12/25 02:37:04;;;;;;;9.55;8.45;;;21.60;99.90;;;;;;5074597;28;20031;-60
2020/12/25 02:39:32;;;;;;;13.38;9.95;;;21.70;99.90;;;;;;5074488;28;20383;-61
2020/12/25 02:42:00;;;;;;;14.60;10.00;;;21.80;99.90;;;;;;5074407;28;20021;-60
2020/12/25 02:44:28;;;;;;;15.95;10.77;;;21.80;99.90;;;;;;5074320;28;20405;-60
2020/12/25 02:46:56;;;;;;;13.50;7.35;;;21.80;99.90;;;;;;5055814;28;20036;-59
2020/12/25 02:49:24;;;;;;;9.30;2.42;;;21.90;99.90;;;;;;5074250;28;20154;-60
2020/12/25 02:51:53;;;;;;;9.82;2.20;;;21.90;99.90;;;;;;5074064;28;20020;-59
2020/12/25 02:54:21;;;;;;;10.52;2.38;;;21.80;99.90;;;;;;5073172;28;20028;-60
2020/12/25 02:56:49;;;;;;;12.20;2.67;;;21.70;99.90;;;;;;5074181;28;20388;-60
2020/12/25 02:59:17;;;;;;;9.88;3.10;;;21.80;99.90;;;;;;5073867;28;20035;-61
2020/12/25 03:01:50;;;;;;;11.07;2.50;;;21.90;99.90;;;;;;5073700;28;20042;-60
2020/12/25 03:04:19;;;;;;;12.68;2.35;;;21.90;99.90;;;;;;5073791;28;20027;-60
2020/12/25 03:06:48;;;;;;;15.38;6.25;;;22.00;99.90;;;;;;5073635;28;20028;-60
2020/12/25 03:09:16;;;;;;;7.95;4.20;;;22.00;99.90;;;;;;5073666;28;20028;-60
2020/12/25 03:11:44;;;;;;;10.70;5.35;;;22.00;99.90;;;;;;5073836;28;20482;-60
2020/12/25 03:14:12;;;;;;;11.70;2.85;;;21.90;99.90;;;;;;5073804;28;20031;-59
2020/12/25 03:16:40;;;;;;;12.15;3.17;;;21.80;99.90;;;;;;5073514;28;20020;-61
2020/12/25 03:19:08;;;;;;;11.10;2.88;;;21.80;99.90;;;;;;5073473;28;20049;-60
2020/12/25 03:21:37;;;;;;;10.02;2.92;;;21.70;99.90;;;;;;5073385;28;20086;-59
2020/12/25 03:24:05;;;;;;;10.40;3.45;;;21.70;99.90;;;;;;5073046;28;20366;-60
2020/12/25 03:26:33;;;;;;;10.40;2.97;;;21.60;99.90;;;;;;5073570;28;20025;-60
2020/12/25 03:29:01;;;;;;;11.95;3.35;;;21.70;99.90;;;;;;5073421;28;20044;-60
2020/12/25 03:31:30;;;;;;;10.43;3.67;;;21.90;99.90;;;;;;5071553;28;20037;-60
2020/12/25 03:33:58;;;;;;;12.50;3.42;;;22.00;99.90;;;;;;5073584;28;20024;-60
2020/12/25 03:36:26;;;;;;;9.90;3.72;;;22.00;99.90;;;;;;5073609;28;20388;-60
2020/12/25 03:38:54;;;;;;;11.55;3.90;;;22.20;99.90;;;;;;5054903;28;20032;-60
2020/12/25 03:41:22;;;;;;;12.05;3.30;;;22.20;99.90;;;;;;5073061;28;20025;-59
2020/12/25 03:43:50;;;;;;;10.93;3.35;;;22.20;99.90;;;;;;5073597;28;20201;-59
2020/12/25 03:46:19;;;;;;;12.77;3.38;;;22.10;99.90;;;;;;5073006;28;20016;-59
2020/12/25 03:48:47;;;;;;;13.20;4.07;;;22.00;99.90;;;;;;5073117;28;20028;-60
2020/12/25 03:51:15;;;;;;;12.38;3.22;;;21.70;99.90;;;;;;5071145;28;20546;-59
2020/12/25 03:53:43;;;;;;;9.38;3.13;;;21.60;99.90;;;;;;5072906;28;20404;-59
2020/12/25 03:56:11;;;;;;;12.63;4.13;;;21.50;99.90;;;;;;5072965;28;20032;-59
2020/12/25 03:58:39;;;;;;;18.38;16.92;;;21.40;99.90;;;;;;5073658;28;20025;-59
2020/12/25 04:01:07;;;;;;;11.30;3.03;;;21.40;99.90;;;;;;5073077;28;20460;-60
2020/12/25 04:03:35;;;;;;;8.38;1.80;;;21.40;99.90;;;;;;5072850;28;20035;-59
2020/12/25 04:06:04;;;;;;;12.70;7.15;;;21.30;99.90;;;;;;5072507;28;20021;-59
2020/12/25 04:08:32;;;;;;;10.75;8.85;;;21.30;99.90;;;;;;5072647;28;20021;-59
2020/12/25 04:11:00;;;;;;;11.07;9.27;;;21.20;99.90;;;;;;5073015;28;20095;-59
2020/12/25 04:13:28;;;;;;;14.55;9.52;;;21.30;99.90;;;;;;5072946;28;20035;-59
2020/12/25 04:16:01;;;;;;;11.15;9.25;;;21.20;99.90;;;;;;5072541;28;20027;-59
2020/12/25 04:18:30;;;;;;;13.57;8.82;;;21.20;99.90;;;;;;5072254;28;20369;-60
2020/12/25 04:20:59;;;;;;;11.68;9.27;;;21.10;99.90;;;;;;5071265;28;20031;-60
2020/12/25 04:23:28;;;;;;;14.60;9.77;;;21.10;99.90;;;;;;5072812;28;20025;-60
2020/12/25 04:25:57;;;;;;;15.88;9.27;;;21.00;99.90;;;;;;5072590;28;20021;-60
2020/12/25 04:28:25;;;;;;;12.93;9.40;;;21.00;99.90;;;;;;5072535;28;20020;-60
2020/12/25 04:30:53;;;;;;;12.50;8.73;;;20.90;99.90;;;;;;5072759;28;20021;-60
2020/12/25 04:33:21;;;;;;;9.43;8.48;;;21.00;99.90;;;;;;5053939;28;20037;-60
2020/12/25 04:35:50;;;;;;;9.63;8.70;;;21.20;99.90;;;;;;5072507;28;20021;-60
2020/12/25 04:38:18;;;;;;;11.43;8.90;;;21.20;99.90;;;;;;5072715;28;20082;-60
2020/12/25 04:40:46;;;;;;;12.68;10.10;;;21.40;99.90;;;;;;5072757;28;20032;-60
2020/12/25 04:43:17;;;;;;;14.90;9.38;;;21.50;99.90;;;;;;5072292;28;20023;-60
2020/12/25 04:45:45;;;;;;;12.98;9.00;;;21.60;99.90;;;;;;5072707;28;20476;-60
2020/12/25 04:48:14;;;;;;;11.60;8.63;;;21.70;99.90;;;;;;5072441;28;20028;-60
2020/12/25 04:50:42;;;;;;;14.55;9.55;;;21.80;99.90;;;;;;5072674;28;20025;-60
2020/12/25 04:53:10;;;;;;;11.35;8.68;;;21.80;99.90;;;;;;5072058;28;20021;-61
2020/12/25 04:55:38;;;;;;;10.68;9.57;;;21.80;99.90;;;;;;5072642;28;20029;-60
2020/12/25 04:58:06;;;;;;;10.27;9.30;;;21.60;99.90;;;;;;5072292;28;20025;-60
2020/12/25 05:00:34;;;;;;;12.23;9.10;;;21.60;99.90;;;;;;5072007;28;20078;-60
2020/12/25 05:03:06;;;;;;;13.50;10.23;;;21.60;99.90;;;;;;5072269;28;20024;-60
2020/12/25 05:05:35;;;;;;;10.10;9.20;;;21.50;99.90;;;;;;5072418;28;20373;-60
2020/12/25 05:08:03;;;;;;;12.48;9.68;;;21.40;99.90;;;;;;5071964;28;20020;-60
2020/12/25 05:10:32;;;;;;;14.07;10.25;;;21.30;99.90;;;;;;5071933;28;20033;-59
2020/12/25 05:13:00;;;;;;;12.68;9.35;;;21.10;99.90;;;;;;5070190;28;20397;-59
2020/12/25 05:15:28;;;;;;;11.43;8.90;;;21.00;99.90;;;;;;5071972;28;20017;-59
2020/12/25 05:17:57;;;;;;;15.55;9.82;;;20.90;99.90;;;;;;5074367;28;20028;-61
2020/12/25 05:20:27;;;;;;;10.27;8.80;;;20.80;99.90;;;;;;5075927;28;20032;-60
2020/12/25 05:23:10;;;;;;;10.60;9.27;;;20.70;99.90;;;;;;5075786;28;20029;-60
2020/12/25 05:25:41;;;;;;;10.60;9.43;;;20.60;99.90;;;;;;5074466;28;20405;-59
2020/12/25 05:28:11;;;;;;;;;;;20.50;99.90;;;;;;5075791;28;20507;-60
2020/12/25 05:30:45;;;;;;;16.35;10.10;;;20.50;99.90;;;;;;5075696;28;19908;-60
2020/12/25 05:33:15;;;;;;;15.27;9.52;;;20.40;99.90;;;;;;5075319;28;20090;-59
2020/12/25 05:35:45;;;;;;;12.07;9.02;;;20.40;99.90;;;;;;5074101;28;20078;-60
2020/12/25 05:38:14;;;;;;;14.67;9.10;;;20.30;99.90;;;;;;5075859;28;20032;-60
2020/12/25 05:40:45;;;;;;;13.05;9.25;;;20.30;99.90;;;;;;5073476;28;20044;-58
2020/12/25 05:43:18;;;;;;;14.63;9.60;;;20.20;99.90;;;;;;5075168;28;20024;-59
2020/12/25 05:45:47;;;;;;;14.02;8.35;;;20.30;99.90;;;;;;5075272;28;20024;-61
2020/12/25 05:48:15;;;;;;;13.63;9.30;;;20.20;99.90;;;;;;5075123;28;20039;-58
2020/12/25 05:50:43;;;;;;;12.60;8.70;;;20.20;99.90;;;;;;5074949;28;20124;-60
2020/12/25 05:53:11;;;;;;;11.93;8.73;;;20.20;99.90;;;;;;5075375;28;20103;-59
2020/12/25 05:55:40;;;;;;;9.88;8.77;;;20.20;99.90;;;;;;5072772;28;20036;-59
2020/12/25 05:58:12;;;;;;;9.50;8.38;;;20.20;99.90;;;;;;5056133;28;20151;-59
2020/12/25 06:00:42;;;;;;;11.32;9.73;;;20.10;99.90;;;;;;5072721;28;20032;-59
2020/12/25 06:03:16;;;;;;;14.63;9.85;;;20.20;99.90;;;;;;5072685;28;20440;-59
2020/12/25 06:05:47;;;;;;;13.85;9.20;;;20.20;99.90;;;;;;5072752;28;20025;-61
2020/12/25 06:08:36;;;;;;;12.82;8.65;;;20.20;99.90;;;;;;5022876;28;20178;-61
2020/12/25 06:11:05;;;;;;;12.68;8.88;;;20.10;99.90;;;;;;5072826;28;20103;-61
2020/12/25 06:13:42;;;;;;;16.17;8.80;;;20.00;99.90;;;;;;5072596;28;20040;-61
2020/12/25 06:16:14;;;;;;;14.63;8.80;;;20.00;99.90;;;;;;5072642;28;20036;-60
2020/12/25 06:19:09;;;;;;;14.77;8.80;;;20.00;99.90;;;;;;5072338;28;20051;-60
2020/12/25 06:21:51;;;;;;;14.25;8.65;;;20.00;99.90;;;;;;5072532;28;20055;-61
2020/12/25 06:24:22;;;;;;;12.25;8.23;;;19.90;99.90;;;;;;5038890;28;20477;-60
2020/12/25 06:27:00;;;;;;;13.05;8.60;;;19.90;99.90;;;;;;5072331;28;20032;-60
2020/12/25 06:29:29;;;;;;;10.90;8.75;;;19.90;99.90;;;;;;5072220;28;20070;-60
2020/12/25 06:32:00;;;;;;;11.43;9.35;;;19.90;99.90;;;;;;5072206;28;20366;-60
2020/12/25 06:34:48;;;;;;;12.43;8.65;;;19.90;99.90;;;;;;5074585;28;20035;-59
2020/12/25 06:37:18;;;;;;;15.13;9.05;;;19.80;99.90;;;;;;5052198;28;20033;-59
2020/12/25 06:39:55;;;;;;;17.73;8.80;;;19.80;99.90;;;;;;5052051;28;20093;-59
2020/12/25 06:42:35;;;;;;;12.10;8.30;;;19.70;99.90;;;;;;5052014;28;20040;-60
2020/12/25 06:45:04;;;;;;;14.38;9.07;;;19.70;99.90;;;;;;5051987;28;20028;-60
2020/12/25 06:47:38;;;;;;;16.92;8.05;;;19.70;99.90;;;;;;5051950;28;20065;-60
2020/12/25 06:50:12;;;;;;;10.52;8.32;;;19.80;99.90;;;;;;5051976;28;20037;-60
2020/12/25 06:53:00;;;;;;;17.48;9.90;;;19.70;99.90;;;;;;5051839;28;20083;-60
2020/12/25 06:55:44;;;;;;;11.90;8.40;;;19.70;99.90;;;;;;5031761;28;20402;-59
2020/12/25 06:58:18;;;;;;;13.90;8.45;;;19.70;99.90;;;;;;5031909;28;20076;-60
2020/12/25 07:00:56;;;;;;;12.52;8.18;;;19.70;99.90;;;;;;5031838;28;20030;-60
2020/12/25 07:03:25;;;;;;;13.73;8.40;;;19.70;99.90;;;;;;5031772;28;20564;-60
2020/12/25 07:05:56;;;;;;;13.60;9.38;;;19.80;99.90;;;;;;5031570;28;20539;-59
2020/12/25 07:08:33;;;;;;;17.23;9.50;;;19.80;99.90;;;;;;5043224;28;20119;-59
2020/12/25 07:11:07;;;;;;;10.07;8.93;;;19.90;99.90;;;;;;5051562;28;20421;-60
2020/12/25 07:13:37;;;;;;;13.95;8.93;;;19.90;99.90;;;;;;5051408;28;20119;-60
2020/12/25 07:16:07;;;;;;;14.00;8.75;;;19.90;99.90;;;;;;5051314;28;20044;-60
2020/12/25 07:18:35;;;;;;;13.15;8.82;;;19.90;99.90;;;;;;5051175;28;20056;-60
2020/12/25 07:21:07;;;;;;;16.00;9.20;;;19.90;99.90;;;;;;5034551;28;20051;-59
2020/12/25 07:23:45;;;;;;;10.25;9.18;;;19.80;99.90;;;;;;5051562;28;20029;-59
2020/12/25 07:26:21;;;;;;;11.45;8.70;;;19.80;99.90;;;;;;5061832;28;20090;-59
2020/12/25 07:28:49;;;;;;;12.80;9.05;;;19.80;99.90;;;;;;5073555;28;20104;-60
2020/12/25 07:31:19;;;;;;;16.02;8.35;;;19.70;99.90;;;;;;5073295;28;20052;-59
2020/12/25 07:33:57;;;;;;;14.40;9.50;;;19.60;99.90;;;;;;5073337;28;20040;-59
2020/12/25 07:36:26;;;;;;;15.02;10.00;;;19.50;99.90;;;;;;5073376;28;20039;-59
2020/12/25 07:39:03;;;;;;;13.00;10.82;;;19.40;99.90;;;;;;5073316;28;20024;-59
2020/12/25 07:41:35;;;;;;;13.68;10.30;;;19.20;99.90;;;;;;5073030;28;20055;-59
2020/12/25 07:44:03;;;;;;;12.57;10.82;;;19.10;99.90;;;;;;5072959;28;20131;-59
2020/12/25 07:46:33;;;;;;;14.25;10.55;;;19.00;99.90;;;;;;5073365;28;20025;-59
2020/12/25 07:49:02;;;;;;;13.27;10.57;;;18.90;99.90;;;;;;5072937;28;20031;-59
2020/12/25 07:51:30;;;;;;;13.52;10.00;;;18.80;99.90;;;;;;5072981;28;20431;-60
2020/12/25 07:54:00;;;;;;;11.73;9.80;;;18.80;99.90;;;;;;5071607;28;20020;-59
2020/12/25 07:56:31;;;;;;;11.77;9.97;;;18.70;99.90;;;;;;5072749;28;20051;-59
2020/12/25 07:59:00;;;;;;;11.77;4.70;;;18.70;99.90;;;;;;5073171;28;20629;-60
2020/12/25 08:01:30;;;;;;;10.27;2.88;;;18.70;99.90;;;;;;5072873;28;20094;-59
2020/12/25 08:04:01;;;;;;;13.48;12.27;;;18.60;99.90;;;;;;5054722;28;20166;-60
2020/12/25 08:06:31;;;;;;;15.93;14.20;;;18.60;99.90;;;;;;5073129;28;20021;-59
2020/12/25 08:09:08;;;;;;;16.20;14.55;;;18.60;99.90;;;;;;5073023;28;20021;-59
2020/12/25 08:11:37;;;;;;;14.30;13.10;;;18.60;99.90;;;;;;5072748;28;20111;-59
2020/12/25 08:14:10;;;;;;;14.05;12.40;;;18.60;99.90;;;;;;5072796;28;20024;-60
2020/12/25 08:16:39;;;;;;;13.70;12.27;;;18.50;99.90;;;;;;5072987;28;20036;-60
2020/12/25 08:19:07;;;;;;;14.57;13.07;;;18.60;99.90;;;;;;5072956;28;20068;-59
2020/12/25 08:21:37;;;;;;;14.38;13.10;;;18.60;99.90;;;;;;5073467;28;20330;-59
2020/12/25 08:24:10;;;;;;;15.90;13.45;;;18.60;99.90;;;;;;5072982;28;20461;-59
2020/12/25 08:26:40;;;;;;;20.52;13.35;;;18.60;99.90;;;;;;5072768;28;20021;-60
2020/12/25 08:29:08;;;;;;;14.70;12.07;;;18.60;99.90;;;;;;5072811;28;20047;-60
2020/12/25 08:31:39;;;;;;;13.60;12.20;;;18.60;99.90;;;;;;5072671;28;20116;-60
2020/12/25 08:34:08;;;;;;;;;;;18.60;99.90;;;;;;5073342;28;20421;-59
2020/12/25 08:36:36;;;;;;;14.38;12.88;;;18.60;99.90;;;;;;5072424;28;19904;-60
2020/12/25 08:39:04;;;;;;;14.23;12.82;;;18.70;99.90;;;;;;5072669;28;20075;-60
2020/12/25 08:41:32;;;;;;;13.93;12.75;;;18.70;99.90;;;;;;5072534;28;20020;-60
2020/12/25 08:44:19;;;;;;;14.00;12.90;;;18.70;99.90;;;;;;5072545;28;20052;-59
2020/12/25 08:46:46;;;;;;;15.40;14.40;;;18.70;99.90;;;;;;5050148;28;20029;-60
2020/12/25 08:49:26;;;;;;;12.48;11.40;;;18.70;99.90;;;;;;5050257;28;20056;-60
2020/12/25 08:51:54;;;;;;;13.23;11.93;;;18.80;99.90;;;;;;5051200;28;20025;-59
2020/12/25 08:54:31;;;;;;;13.93;11.48;;;18.80;99.90;;;;;;5037572;28;20049;-59
2020/12/25 08:56:59;;;;;;;12.80;10.98;;;18.80;99.90;;;;;;5054150;28;20132;-60
2020/12/25 08:59:27;;;;;;;12.35;11.02;;;18.80;99.90;;;;;;5034276;28;20043;-59
2020/12/25 09:01:55;;;;;;;11.95;10.82;;;18.80;99.90;;;;;;5034183;28;20030;-60
2020/12/25 09:04:23;;;;;;;10.95;9.77;;;18.70;99.90;;;;;;5034014;28;20029;-59
2020/12/25 09:06:52;;;;;;;16.67;10.30;;;18.70;99.90;;;;;;5033925;28;20029;-59
2020/12/25 09:09:20;;;;;;;11.77;10.57;;;18.70;99.90;;;;;;5033943;28;20040;-59
2020/12/25 09:11:47;;;;;;;13.50;9.50;;;18.70;99.90;;;;;;5034388;28;20037;-59
2020/12/25 09:14:15;;;;;;;15.88;10.20;;;18.70;99.90;;;;;;5001062;28;20060;-59
2020/12/25 09:16:43;;;;;;;12.35;10.38;;;18.70;99.90;;;;;;5002764;28;20103;-59
2020/12/25 09:19:11;;;;;;;13.02;10.65;;;18.70;99.90;;;;;;5053553;28;20134;-59
2020/12/25 09:21:39;;;;;;;12.23;10.15;;;18.60;99.90;;;;;;5053753;28;20116;-60
2020/12/25 09:24:07;;;;;;;13.20;9.23;;;18.60;99.90;;;;;;5053485;28;20082;-60
2020/12/25 09:26:35;;;;;;;14.32;10.27;;;18.60;99.90;;;;;;5053631;28;20044;-60
2020/12/25 09:29:03;;;;;;;13.60;9.85;;;18.60;99.90;;;;;;5053518;28;20025;-60
2020/12/25 09:31:31;;;;;;;14.00;10.07;;;18.60;99.90;;;;;;5056554;28;20499;-59
2020/12/25 09:33:59;;;;;;;10.38;9.48;;;18.60;99.90;;;;;;5075674;28;20361;-59
2020/12/25 09:36:27;;;;;;;14.73;10.38;;;18.60;99.90;;;;;;5057068;28;20036;-59
2020/12/25 09:38:54;;;;;;;12.43;9.23;;;18.60;99.90;;;;;;5075533;28;20119;-59
2020/12/25 09:41:22;;;;;;;11.68;9.13;;;18.60;99.90;;;;;;5075681;28;20036;-59
2020/12/25 09:43:50;;;;;;;16.35;9.13;;;18.70;99.90;;;;;;5074022;28;20046;-59
2020/12/25 09:46:17;;;;;;;10.48;9.07;;;18.70;99.90;;;;;;5075747;28;20111;-59
2020/12/25 09:48:45;;;;;;;13.07;9.20;;;18.70;99.90;;;;;;5075235;28;20017;-59
2020/12/25 09:51:13;;;;;;;12.52;9.18;;;18.70;99.90;;;;;;5075478;28;20023;-60
2020/12/25 09:53:41;;;;;;;12.35;9.63;;;18.70;99.90;;;;;;5075333;28;20036;-59
2020/12/25 09:56:08;;;;;;;12.98;9.70;;;18.70;99.90;;;;;;5074193;28;20448;-59
2020/12/25 09:58:36;;;;;;;14.68;9.50;;;18.70;99.90;;;;;;5075323;28;20357;-59
2020/12/25 10:01:04;;;;;;;17.40;10.57;;;18.70;99.90;;;;;;5075337;28;20028;-59
2020/12/25 10:03:33;;;;;;;15.38;9.98;;;18.70;99.90;;;;;;5074400;28;20483;-59
2020/12/25 10:06:00;;;;;;;11.32;10.07;;;18.70;99.90;;;;;;5074840;28;20030;-59
2020/12/25 10:08:28;;;;;;;11.30;9.02;;;18.80;99.90;;;;;;5075103;28;20329;-59
2020/12/25 10:10:56;;;;;;;11.93;9.57;;;18.80;99.90;;;;;;5073578;28;20108;-60
2020/12/25 10:13:24;;;;;;;15.05;10.50;;;18.80;99.90;;;;;;5074946;28;20028;-59
2020/12/25 10:15:52;;;;;;;10.93;9.07;;;18.80;99.90;;;;;;5073247;28;20031;-59
2020/12/25 10:18:21;;;;;;;13.80;9.30;;;18.80;99.90;;;;;;5056152;28;20063;-59
2020/12/25 10:20:49;;;;;;;14.77;10.57;;;18.90;99.90;;;;;;5074655;28;20029;-59
2020/12/25 10:23:16;;;;;;;14.38;9.50;;;18.90;99.90;;;;;;5074547;28;20020;-59
2020/12/25 10:25:44;;;;;;;11.70;8.93;;;18.90;99.90;;;;;;5074810;28;20418;-59
2020/12/25 10:28:12;;;;;;;10.25;8.73;;;18.90;99.90;;;;;;5074726;28;20033;-59
2020/12/25 10:30:40;;;;;;;12.27;8.23;;;18.90;99.90;;;;;;5074639;28;20017;-59
2020/12/25 10:33:08;;;;;;;13.63;9.20;;;18.90;99.90;;;;;;5073268;28;20021;-59
2020/12/25 10:35:36;;;;;;;15.30;8.52;;;18.90;99.90;;;;;;5074591;28;20103;-59
2020/12/25 10:38:04;;;;;;;11.07;9.15;;;18.90;99.90;;;;;;5074345;28;20150;-59
2020/12/25 10:40:31;;;;;;;12.65;8.80;;;18.90;99.90;;;;;;5072883;28;20115;-59
2020/12/25 10:42:59;;;;;;;12.65;9.05;;;18.90;99.90;;;;;;5074429;28;20031;-59
2020/12/25 10:45:27;;;;;;;12.32;9.38;;;18.90;99.90;;;;;;5074457;28;20029;-59
2020/12/25 10:47:55;;;;;;;13.55;10.20;;;18.90;99.90;;;;;;5074305;28;20056;-59
2020/12/25 10:50:23;;;;;;;11.38;9.43;;;18.90;99.90;;;;;;5074369;28;20027;-60
2020/12/25 10:52:51;;;;;;;13.52;9.15;;;18.90;99.90;;;;;;5055545;28;20052;-60
2020/12/25 10:55:19;;;;;;;11.85;9.48;;;18.90;99.90;;;;;;5039037;28;20405;-60
2020/12/25 10:57:47;;;;;;;12.85;9.55;;;18.90;99.90;;;;;;5074048;28;20028;-59
2020/12/25 11:00:14;;;;;;;12.77;9.35;;;18.90;99.90;;;;;;5074095;28;20029;-59
2020/12/25 11:02:42;;;;;;;13.85;9.07;;;18.90;99.90;;;;;;5072098;28;20047;-59
2020/12/25 11:05:14;;;;;;;14.00;10.02;;;18.90;99.90;;;;;;5073656;28;20032;-60
2020/12/25 11:07:42;;;;;;;15.18;9.80;;;18.90;99.90;;;;;;5073876;28;20036;-59
2020/12/25 11:10:09;;;;;;;12.65;8.98;;;18.80;99.90;;;;;;5073630;28;20143;-59
2020/12/25 11:12:37;;;;;;;13.43;9.60;;;18.80;99.90;;;;;;5073560;28;20104;-59
2020/12/25 11:15:04;;;;;;;13.65;9.52;;;18.70;99.90;;;;;;5073074;28;20032;-59
2020/12/25 11:17:32;;;;;;;13.88;9.18;;;18.70;99.90;;;;;;5073580;28;20024;-60
2020/12/25 11:20:00;;;;;;;11.90;9.07;;;18.70;99.90;;;;;;5073238;28;20420;-60
2020/12/25 11:22:34;;;;;;;13.57;8.63;;;18.70;99.90;;;;;;5073632;28;20024;-59
2020/12/25 11:25:02;;;;;;;10.70;9.52;;;18.60;99.90;;;;;;5073219;28;20036;-59
2020/12/25 11:27:32;;;;;;;10.32;9.18;;;18.60;99.90;;;;;;5073190;28;20067;-60
2020/12/25 11:30:00;;;;;;;10.48;9.45;;;18.60;99.90;;;;;;5055176;28;20043;-60
2020/12/25 11:32:28;;;;;;;10.20;9.23;;;18.60;99.90;;;;;;5054920;28;20033;-59
2020/12/25 11:34:56;;;;;;;14.05;10.20;;;18.60;99.90;;;;;;5073311;28;20029;-60
2020/12/25 11:37:24;;;;;;;13.05;9.45;;;18.60;99.90;;;;;;5073350;28;20025;-59
2020/12/25 11:39:52;;;;;;;15.07;9.70;;;18.50;99.90;;;;;;5071764;28;20028;-59
2020/12/25 11:42:20;;;;;;;10.80;9.50;;;18.60;99.90;;;;;;5072991;28;20024;-60
2020/12/25 11:44:48;;;;;;;11.07;9.60;;;18.60;99.90;;;;;;5072913;28;20028;-59
2020/12/25 11:47:17;;;;;;;14.32;9.38;;;18.60;99.90;;;;;;5072924;28;20017;-60
2020/12/25 11:49:45;;;;;;;10.38;9.23;;;18.60;99.90;;;;;;5072872;28;20107;-60
2020/12/25 11:52:13;;;;;;;12.95;9.52;;;18.60;99.90;;;;;;5073157;28;20028;-60
2020/12/25 11:54:41;;;;;;;13.85;8.93;;;18.70;99.90;;;;;;5073119;28;20082;-59
2020/12/25 11:57:09;;;;;;;10.88;8.95;;;18.70;99.90;;;;;;5073073;28;20031;-60
2020/12/25 11:59:37;;;;;;;11.93;8.80;;;18.70;99.90;;;;;;5073051;28;20066;-59
2020/12/25 12:02:05;;;;;;;9.48;8.60;;;18.70;99.90;;;;;;5073157;28;20429;-60
2020/12/25 12:04:33;;;;;;;13.40;7.93;;;18.60;99.90;;;;;;5072962;28;20106;-59
2020/12/25 12:07:01;;;;;;;13.40;7.90;;;18.50;99.90;;;;;;5073158;28;20377;-60
2020/12/25 12:09:30;;;;;;;11.68;7.65;;;18.40;99.90;;;;;;5073037;28;20380;-59
2020/12/25 12:11:58;;;;;;;9.00;7.35;;;18.30;99.90;;;;;;5073049;28;20016;-59
2020/12/25 12:14:26;;;;;;;8.65;7.20;;;18.20;99.90;;;;;;5072679;28;20028;-60
2020/12/25 12:16:54;;;;;;;10.45;6.88;;;18.10;99.90;;;;;;5073001;28;20103;-59
2020/12/25 12:19:22;;;;;;;11.73;7.03;;;18.10;99.90;;;;;;5072435;28;20071;-59
2020/12/25 12:21:50;;;;;;;8.75;1.92;;;18.00;99.90;;;;;;5072915;28;20449;-59
2020/12/25 12:24:18;;;;;;;11.15;1.67;;;18.00;99.90;;;;;;5072781;28;20469;-60
2020/12/25 12:26:49;;;;;;;11.02;2.22;;;18.00;99.90;;;;;;5076774;28;20016;-60
2020/12/25 12:29:16;;;;;;;;;;;18.00;99.90;;;;;;5077893;28;20060;-59
2020/12/25 12:31:44;;;;;;;8.63;1.58;;;17.90;99.90;;;;;;5079195;28;19920;-59
2020/12/25 12:34:13;;;;;;;9.73;2.03;;;17.90;99.90;;;;;;5079339;28;20020;-60
2020/12/25 12:36:45;;;;;;;9.65;1.58;;;17.80;99.90;;;;;;5079566;28;20032;-60
2020/12/25 12:39:13;;;;;;;12.30;2.38;;;17.80;99.90;;;;;;5079512;28;20116;-59
2020/12/25 12:41:41;;;;;;;12.73;2.17;;;17.80;99.90;;;;;;5077250;28;20044;-59
2020/12/25 12:44:09;;;;;;;14.27;2.08;;;17.80;99.90;;;;;;5078962;28;20115;-60
2020/12/25 12:46:37;;;;;;;9.57;2.22;;;17.70;99.90;;;;;;5079374;28;20035;-59